Terminal Aerodrome Forecast
Issued by NWS

Home | Current Version | Previous Version | Text Only | Print | Product List | Glossary On
Versions: 1 2 3 4 5 6 7 8 9 10 11 12 13 14
000
FTUS43 KDTX 210530
TAFDET
TAF
KDET 210530Z 2106/2206 24010KT P6SM BKN050 BKN080
     FM211000 22009KT P6SM SCT060 BKN090
     FM211400 24016G26KT P6SM BKN080
     FM211600 24022G32KT P6SM SCT050 BKN070 PROB30 2117/2121
      25024G38KT 6SM SHRA BKN040 OVC060
     FM220000 22014KT P6SM BKN060=

USA.gov is the U.S. government's official web portal to all federal, state and local government web resources and services.